Detall de PIREP

Printer-friendly versionPDF version

[2013/04/27 07:54:00]
Flight IATA:CT3102
Pilot Number:012
Company ICAO:CAT
Aircraft Type:MD11/E
PAX:322
Aircraft Registration:PAX
Departing Airport: LIEA
Destination Airport: LEPA
Alternate Airport:LEBL
Online: VATSIM
Route:SUPUX UZ924 RIPAL UM603 MORSS
Flight Level:F330
No Slew and time accel
No pause
Crash detect
Detect pilot in Cockpit between each 30 and 45 minutes
07:55 Zero fuel Weight: 429995 Lbs, Fuel Weight: 37517 Lbs
07:55 VATSIM:LIEA 270720Z 00000KT 9999 FEW008 BKN020 16/15 Q1006
07:55 VATSIM:LEPA 270730Z VRB02KT 9999 FEW010 SCT015 BKN020 15/15 Q1006 NOSIG
07:55 VOICE CATALONIAN
07:59 Parking Brakes off
08:05 Take-off
08:05 Take off Weight: 466168 Lbs
08:05 Wind: 000º @ 000 Knots Heading: 204º
08:05 POS N40º 37´ 47´´ E008º 17´ 22´´
08:05 Gear Up: 185 Knots
08:05 Flaps:3 at 185 Knots
08:07 Flaps:2 at 233 Knots
08:07 Flaps:3 at 236 Knots
08:07 Flaps:2at 237 Knots
08:07 Flaps:1 at 239 Knots
08:07 Flaps:0 at 246 Knots
08:20 Wind:310º@038 Knots Heading: 263º Ground Speed: 458 Knots Altitude 30764 ft
08:35 Wind:269º@022 Knots Heading: 255º Ground Speed: 305 Knots Altitude 16473 ft
08:46 Flaps:1 at 226 Knots
08:48 Flaps:2 at 231 Knots
08:49 Flaps:3 at 237 Knots
08:49 Flaps:4 at 234 Knots
08:49 Flaps:3 at 231 Knots
08:49 Flaps:4 at 229 Knots
08:49 Flaps:5 at 222 Knots
08:49 Flaps:6 at 212 Knots
08:50 Wind:322º@002 Knots Heading: 216º Ground Speed: 183 Knots Altitude 2349 ft
08:50 Gear Down: 167 Knots
08:50 Flaps:7 at 166 Knots
08:52 TouchDown:Rate -252 ft/min Speed: 148 Knots
08:53 VATSIM:LEPA 270830Z 00000KT 9000 FEW008 BKN012 16/15 Q1006 NOSIG
08:53 Land
08:53 Wind:015º@002 Knots
08:53 Heading: 237º
08:53 Flight Duration: 00:48
08:53 Landing Weight: 451117 Lbs
08:53 POS N39º 32´ 47´´ E002º 44´ 36´´
08:54 Parking brakes on
08:54 Block to Block Duration: 00:55
08:54 Final Fuel: 20967 Lbls
08:54 Spent Fuel: 16549 Lbls
08:54 Flight Length: 269 NM
08:54 TOD Land Length: 269 NM

Exportar CSV

Powered by Drupal - Modified by Danger4k